createdAt,value
2019-02-14T00:01:40.469Z,10.93
2019-02-14T00:04:11.373Z,11.33
2019-02-14T00:06:42.317Z,10.40
2019-02-14T00:09:15.888Z,9.93
2019-02-14T00:11:46.844Z,11.00
2019-02-14T00:14:17.745Z,9.10
2019-02-14T00:16:48.676Z,11.90
2019-02-14T00:19:21.114Z,10.43
2019-02-14T00:21:52.105Z,10.73
2019-02-14T00:24:23.125Z,9.70
2019-02-14T00:26:54.129Z,8.93
2019-02-14T00:29:25.894Z,9.53
2019-02-14T00:31:57.013Z,9.27
2019-02-14T00:34:27.981Z,9.40
2019-02-14T00:36:58.939Z,8.87
2019-02-14T00:39:29.896Z,9.40
2019-02-14T00:42:00.862Z,8.17
2019-02-14T00:44:31.754Z,7.53
2019-02-14T00:47:03.040Z,8.10
2019-02-14T00:49:33.977Z,8.40
2019-02-14T00:52:04.898Z,9.40
2019-02-14T00:54:37.260Z,9.43
2019-02-14T00:57:08.273Z,7.77
2019-02-14T00:59:39.117Z,8.87
2019-02-14T01:02:10.102Z,8.60
2019-02-14T01:04:40.999Z,8.27
2019-02-14T01:07:13.137Z,7.80
2019-02-14T01:09:44.006Z,8.53
2019-02-14T01:12:15.027Z,9.77
2019-02-14T01:14:45.991Z,9.23
2019-02-14T01:17:16.927Z,9.57
2019-02-14T01:19:47.825Z,9.00
2019-02-14T01:22:18.837Z,9.33
2019-02-14T01:24:49.742Z,9.30
2019-02-14T01:27:20.696Z,8.83
2019-02-14T01:29:52.574Z,8.73
2019-02-14T01:32:28.992Z,7.87
2019-02-14T01:34:59.873Z,8.40
2019-02-14T01:37:30.907Z,8.70
2019-02-14T01:43:01.796Z,8.90
2019-02-14T01:45:35.401Z,8.63
2019-02-14T01:48:06.311Z,8.73
2019-02-14T01:50:37.282Z,9.93
2019-02-14T01:53:08.199Z,9.70
2019-02-14T01:55:39.098Z,9.57
2019-02-14T01:58:10.219Z,7.93
2019-02-14T02:00:41.122Z,9.47
2019-02-14T02:03:12.045Z,8.77
2019-02-14T02:05:50.675Z,8.50
2019-02-14T02:08:15.662Z,9.17
2019-02-14T02:10:48.082Z,8.67
2019-02-14T02:13:22.023Z,9.13
2019-02-14T02:15:52.921Z,8.93
2019-02-14T02:18:24.306Z,8.63
2019-02-14T02:20:55.382Z,9.73
2019-02-14T02:23:26.299Z,8.00
2019-02-14T02:25:57.191Z,8.27
2019-02-14T02:28:28.171Z,9.57
2019-02-14T02:30:59.072Z,9.80
2019-02-14T02:33:30.125Z,9.03
2019-02-14T02:36:01.049Z,9.67
2019-02-14T02:38:32.081Z,7.83
2019-02-14T02:41:02.985Z,7.90
2019-02-14T02:43:33.948Z,7.20
2019-02-14T02:46:04.838Z,8.07
2019-02-14T02:48:35.760Z,8.00
2019-02-14T02:51:06.654Z,8.97
2019-02-14T02:53:37.579Z,8.00
2019-02-14T02:56:08.476Z,7.43
2019-02-14T02:58:39.581Z,7.37
2019-02-14T03:01:10.488Z,7.27
2019-02-14T03:03:44.407Z,7.73
2019-02-14T03:06:18.434Z,7.73
2019-02-14T03:08:49.450Z,7.40
2019-02-14T03:11:20.324Z,7.47
2019-02-14T03:13:51.266Z,8.27
2019-02-14T03:16:25.076Z,7.27
2019-02-14T03:18:56.007Z,7.33
2019-02-14T03:21:28.821Z,8.30
2019-02-14T03:23:59.712Z,7.23
2019-02-14T03:26:30.615Z,8.07
2019-02-14T03:29:03.797Z,7.03
2019-02-14T03:31:34.645Z,8.30
2019-02-14T03:34:05.570Z,8.37
2019-02-14T03:36:36.459Z,8.27
2019-02-14T03:39:07.493Z,9.13
2019-02-14T03:41:38.388Z,8.90
2019-02-14T03:44:09.338Z,7.73
2019-02-14T03:46:40.232Z,7.97
2019-02-14T03:49:11.155Z,8.07
2019-02-14T03:51:42.067Z,7.57
2019-02-14T03:54:13.102Z,8.70
2019-02-14T03:56:44.000Z,7.90
2019-02-14T03:59:14.944Z,8.37
2019-02-14T04:01:45.839Z,8.30
2019-02-14T04:04:16.774Z,7.33
2019-02-14T04:06:47.664Z,7.83
2019-02-14T04:09:18.594Z,7.63
2019-02-14T04:11:49.621Z,9.23
2019-02-14T04:14:20.592Z,9.03
2019-02-14T04:16:51.493Z,8.67
2019-02-14T04:19:25.630Z,9.20
2019-02-14T04:21:56.512Z,9.07
2019-02-14T04:24:27.441Z,9.27
2019-02-14T04:26:58.327Z,8.93
2019-02-14T04:29:29.294Z,9.90
2019-02-14T04:32:00.199Z,9.43
2019-02-14T04:34:31.127Z,9.83
2019-02-14T04:37:02.018Z,9.47
2019-02-14T04:39:33.026Z,11.50
2019-02-14T04:42:03.944Z,10.00
2019-02-14T04:44:34.922Z,10.63
2019-02-14T04:47:05.816Z,9.47
2019-02-14T04:49:38.334Z,10.90
2019-02-14T04:52:09.222Z,9.40
2019-02-14T04:54:40.156Z,9.53
2019-02-14T04:57:11.039Z,9.67
2019-02-14T04:59:42.164Z,9.10
2019-02-14T05:02:15.951Z,10.73
2019-02-14T05:04:46.883Z,9.77
2019-02-14T05:07:17.785Z,12.53
2019-02-14T05:09:48.723Z,11.00
2019-02-14T05:12:19.622Z,18.03
2019-02-14T05:14:50.623Z,17.53
2019-02-14T05:17:21.510Z,15.10
2019-02-14T05:19:55.112Z,13.53
2019-02-14T05:22:26.087Z,10.93
2019-02-14T05:24:59.919Z,12.37
2019-02-14T05:27:30.977Z,12.50
2019-02-14T05:30:02.017Z,12.40
2019-02-14T05:32:32.926Z,13.00
2019-02-14T05:35:03.838Z,14.23
2019-02-14T05:37:34.744Z,12.50
2019-02-14T05:40:08.418Z,12.37
2019-02-14T05:42:39.634Z,11.67
2019-02-14T05:45:13.936Z,12.03
2019-02-14T05:47:44.855Z,13.80
2019-02-14T05:50:15.895Z,13.63
2019-02-14T05:52:46.848Z,14.70
2019-02-14T05:55:17.742Z,14.70
2019-02-14T05:57:48.750Z,14.20
2019-02-14T06:00:22.432Z,13.80
2019-02-14T06:02:56.133Z,13.17
2019-02-14T06:05:27.070Z,13.23
2019-02-14T06:07:57.967Z,13.43
2019-02-14T06:10:28.903Z,13.97
2019-02-14T06:12:59.815Z,14.03
2019-02-14T06:15:30.809Z,12.20
2019-02-14T06:18:01.701Z,12.00
2019-02-14T06:20:32.634Z,10.93
2019-02-14T06:23:03.536Z,11.00
2019-02-14T06:25:34.477Z,10.07
2019-02-14T06:28:05.477Z,12.37
2019-02-14T06:30:37.271Z,11.87
2019-02-14T06:33:09.884Z,15.43
2019-02-14T06:35:40.843Z,11.83
2019-02-14T06:38:14.625Z,11.37
2019-02-14T06:40:45.533Z,12.53
2019-02-14T06:43:19.130Z,11.40
2019-02-14T06:45:50.120Z,18.30
2019-02-14T06:48:21.226Z,14.20
2019-02-14T06:50:52.735Z,16.07
2019-02-14T06:53:23.588Z,16.80
2019-02-14T06:55:54.524Z,19.03
2019-02-14T06:58:25.424Z,12.37
2019-02-14T07:00:58.048Z,11.93
2019-02-14T07:03:28.943Z,11.33
2019-02-14T07:05:59.869Z,10.43
2019-02-14T07:08:30.779Z,12.13
2019-02-14T07:11:01.711Z,10.53
2019-02-14T07:13:32.630Z,12.50
2019-02-14T07:16:03.675Z,12.93
2019-02-14T07:18:34.589Z,11.50
2019-02-14T07:21:05.525Z,12.70
2019-02-14T07:23:39.276Z,11.53
2019-02-14T07:26:10.218Z,11.40
2019-02-14T07:28:41.114Z,11.10
2019-02-14T07:31:12.089Z,11.20
2019-02-14T07:33:43.343Z,12.87
2019-02-14T07:36:14.272Z,10.83
2019-02-14T07:38:45.243Z,9.53
2019-02-14T07:41:16.175Z,7.77
2019-02-14T07:43:47.064Z,8.63
2019-02-14T07:46:22.683Z,7.83
2019-02-14T07:48:50.759Z,7.80
2019-02-14T07:51:21.746Z,8.17
2019-02-14T07:53:52.633Z,8.33
2019-02-14T07:56:23.574Z,8.77
2019-02-14T07:58:54.459Z,9.57
2019-02-14T08:01:25.486Z,10.77
2019-02-14T08:03:56.394Z,8.37
2019-02-14T08:06:27.318Z,8.80
2019-02-14T08:08:58.225Z,10.70
2019-02-14T08:11:29.155Z,10.40
2019-02-14T08:14:00.059Z,10.63
2019-02-14T08:16:31.020Z,13.90
2019-02-14T08:19:01.923Z,12.53
2019-02-14T08:21:32.864Z,15.13
2019-02-14T08:24:03.765Z,14.70
2019-02-14T08:26:37.392Z,10.77
2019-02-14T08:29:08.291Z,8.40
2019-02-14T08:31:39.415Z,14.37
2019-02-14T08:34:13.246Z,9.60
2019-02-14T08:36:44.280Z,7.70
2019-02-14T08:39:15.209Z,9.50
2019-02-14T08:41:46.149Z,10.17
2019-02-14T08:44:17.051Z,11.27
2019-02-14T08:46:48.004Z,12.93
2019-02-14T08:49:19.132Z,11.37
2019-02-14T08:51:50.902Z,10.33
2019-02-14T08:54:21.792Z,10.58
2019-02-14T08:56:52.726Z,10.43
2019-02-14T08:59:23.629Z,9.33
2019-02-14T09:01:54.583Z,13.05
2019-02-14T09:04:25.482Z,16.37
2019-02-14T09:06:56.408Z,11.37
2019-02-14T09:09:27.319Z,10.45
2019-02-14T09:11:58.247Z,10.70
2019-02-14T09:14:29.158Z,12.15
2019-02-14T09:17:05.881Z,12.80
2019-02-14T09:19:36.787Z,14.60
2019-02-14T09:22:07.797Z,10.35
2019-02-14T09:24:38.690Z,12.23
2019-02-14T09:27:09.635Z,10.40
2019-02-14T09:29:40.536Z,11.93
2019-02-14T09:32:11.609Z,11.37
2019-02-14T09:34:43.364Z,11.67
2019-02-14T09:37:14.323Z,12.28
2019-02-14T09:39:45.265Z,11.28
2019-02-14T09:42:18.717Z,10.00
2019-02-14T09:44:48.799Z,11.20
2019-02-14T09:47:19.783Z,11.40
2019-02-14T09:49:54.701Z,11.87
2019-02-14T09:52:25.639Z,12.37
2019-02-14T09:54:56.574Z,13.27
2019-02-14T09:57:27.493Z,14.40
2019-02-14T09:59:58.392Z,14.20
2019-02-14T10:02:29.367Z,13.90
2019-02-14T10:05:00.423Z,13.00
2019-02-14T10:07:31.358Z,13.80
2019-02-14T10:10:02.261Z,15.43
2019-02-14T10:12:33.220Z,15.98
2019-02-14T10:15:04.722Z,14.93
2019-02-14T10:17:35.779Z,14.38
2019-02-14T10:20:12.689Z,16.80
2019-02-14T10:22:43.623Z,16.67
2019-02-14T10:25:15.037Z,14.35
2019-02-14T10:27:48.940Z,17.50
2019-02-14T10:30:21.885Z,18.23
2019-02-14T10:32:53.977Z,14.95
2019-02-14T10:35:25.846Z,15.35
2019-02-14T10:37:58.293Z,14.65
2019-02-14T10:40:29.980Z,17.60
2019-02-14T10:43:00.915Z,17.33
2019-02-14T10:45:31.814Z,20.02
2019-02-14T10:48:02.830Z,25.13
2019-02-14T10:50:33.749Z,25.43
2019-02-14T10:53:04.750Z,24.43
2019-02-14T10:55:38.334Z,29.03
2019-02-14T10:58:09.269Z,21.53
2019-02-14T11:00:40.167Z,42.23
2019-02-14T11:03:11.212Z,42.25
2019-02-14T11:05:42.140Z,26.77
2019-02-14T11:08:13.057Z,24.15
2019-02-14T11:10:43.954Z,20.08
2019-02-14T11:13:16.474Z,23.02
2019-02-14T11:15:47.390Z,25.55
2019-02-14T11:18:18.374Z,35.33
2019-02-14T11:20:49.523Z,24.25
2019-02-14T11:23:20.415Z,30.80
2019-02-14T11:25:52.105Z,25.48
2019-02-14T11:28:23.045Z,24.10
2019-02-14T11:30:53.945Z,24.92
2019-02-14T11:33:25.167Z,29.85
2019-02-14T11:35:59.868Z,23.30
2019-02-14T11:38:30.881Z,18.87
2019-02-14T11:41:01.792Z,18.17
2019-02-14T11:43:32.734Z,17.73
2019-02-14T11:46:03.626Z,21.82
2019-02-14T11:48:34.597Z,33.65
2019-02-14T11:51:05.513Z,20.43
2019-02-14T11:53:36.509Z,18.40
2019-02-14T11:56:07.425Z,20.03
2019-02-14T11:58:38.357Z,19.57
2019-02-14T12:01:09.267Z,20.17
2019-02-14T12:03:43.470Z,22.27
2019-02-14T12:06:17.620Z,35.30
2019-02-14T12:08:59.517Z,26.87
2019-02-14T12:11:22.315Z,22.98
2019-02-14T12:13:53.322Z,22.02
2019-02-14T12:16:30.416Z,23.57
2019-02-14T12:18:56.993Z,25.35
2019-02-14T12:21:29.014Z,24.97
2019-02-14T12:23:59.920Z,26.97
2019-02-14T12:26:30.824Z,31.23
2019-02-14T12:29:01.745Z,24.27
2019-02-14T12:31:32.645Z,20.03
2019-02-14T12:34:03.827Z,19.17
2019-02-14T12:36:35.088Z,17.98
2019-02-14T12:41:40.667Z,18.65
2019-02-14T12:44:11.599Z,19.15
2019-02-14T12:46:45.672Z,23.60
2019-02-14T12:49:16.631Z,21.23
2019-02-14T12:51:47.553Z,27.27
2019-02-14T12:54:18.509Z,22.30
2019-02-14T12:56:49.401Z,22.00
2019-02-14T12:59:20.330Z,22.32
2019-02-14T13:01:51.233Z,22.73
2019-02-14T13:04:22.177Z,24.97
2019-02-14T13:06:53.081Z,25.95
2019-02-14T13:09:24.076Z,22.40
2019-02-14T13:11:55.001Z,22.22
2019-02-14T13:14:25.933Z,23.50
2019-02-14T13:16:56.837Z,24.27
2019-02-14T13:19:27.810Z,23.20
2019-02-14T13:21:58.731Z,22.95
2019-02-14T13:24:29.654Z,27.85
2019-02-14T13:27:02.869Z,26.55
2019-02-14T13:29:33.822Z,27.25
2019-02-14T13:32:04.719Z,27.32
2019-02-14T13:34:35.825Z,27.93
2019-02-14T13:37:07.521Z,25.40
2019-02-14T13:39:38.528Z,29.30
2019-02-14T13:42:09.508Z,31.48
2019-02-14T13:44:40.547Z,32.25
2019-02-14T13:47:11.462Z,36.87
2019-02-14T13:49:45.344Z,35.78
2019-02-14T13:52:16.246Z,35.03
2019-02-14T13:54:47.204Z,32.67
2019-02-14T13:57:18.206Z,34.90
2019-02-14T13:59:49.146Z,33.13
2019-02-14T14:02:20.037Z,33.17
2019-02-14T14:04:50.990Z,32.23
2019-02-14T14:07:21.899Z,35.70
2019-02-14T14:09:52.834Z,33.10
2019-02-14T14:12:25.335Z,34.20
2019-02-14T14:14:57.730Z,35.87
2019-02-14T14:17:28.622Z,33.53
2019-02-14T14:19:59.674Z,32.13
2019-02-14T14:22:30.568Z,28.97
2019-02-14T14:25:01.504Z,25.97
2019-02-14T14:27:32.419Z,26.23
2019-02-14T14:30:04.509Z,28.67
2019-02-14T14:32:35.427Z,27.37
2019-02-14T14:35:13.696Z,25.60
2019-02-14T14:37:45.428Z,30.00
2019-02-14T14:40:17.663Z,31.83
2019-02-14T14:42:53.418Z,29.23
2019-02-14T14:45:42.044Z,29.18
2019-02-14T14:48:19.525Z,29.77
2019-02-14T14:50:46.703Z,28.03
2019-02-14T14:53:17.614Z,28.40
2019-02-14T14:55:48.540Z,26.37
2019-02-14T14:58:19.471Z,29.27
2019-02-14T15:00:50.390Z,39.80
2019-02-14T15:03:21.304Z,38.07
2019-02-14T15:05:52.361Z,39.13
2019-02-14T15:08:26.239Z,35.30
2019-02-14T15:10:57.628Z,50.20
2019-02-14T15:13:28.538Z,46.50
2019-02-14T15:16:02.559Z,56.00
2019-02-14T15:18:33.451Z,43.97
2019-02-14T15:21:04.408Z,49.13
2019-02-14T15:23:35.314Z,37.00
2019-02-14T15:26:06.260Z,38.87
2019-02-14T15:28:37.641Z,42.30
2019-02-14T15:31:08.668Z,54.67
2019-02-14T15:33:39.591Z,31.07
2019-02-14T15:36:13.309Z,28.10
2019-02-14T15:38:45.094Z,33.03
2019-02-14T15:41:16.025Z,31.67
2019-02-14T15:43:46.927Z,34.50
2019-02-14T15:46:17.861Z,31.00
2019-02-14T15:48:48.766Z,28.07
2019-02-14T15:51:20.108Z,29.48
2019-02-14T15:53:51.135Z,39.67
2019-02-14T15:56:22.077Z,31.07
2019-02-14T15:58:55.347Z,35.67
2019-02-14T16:01:25.960Z,33.53
2019-02-14T16:03:56.860Z,28.97
2019-02-14T16:06:30.226Z,30.53
2019-02-14T16:09:00.410Z,28.10
2019-02-14T16:11:31.346Z,27.93
2019-02-14T16:14:02.277Z,28.40
2019-02-14T16:16:33.277Z,29.00
2019-02-14T16:19:04.187Z,29.17
2019-02-14T16:21:35.136Z,30.03
2019-02-14T16:24:06.041Z,31.43
2019-02-14T16:26:38.813Z,34.83
2019-02-14T16:29:09.580Z,33.80
2019-02-14T16:31:41.226Z,31.57
2019-02-14T16:34:12.149Z,40.10
2019-02-14T16:36:44.393Z,40.25
2019-02-14T16:39:15.382Z,37.23
2019-02-14T16:41:46.353Z,48.10
2019-02-14T16:44:17.254Z,53.97
2019-02-14T16:46:48.185Z,55.77
2019-02-14T16:49:21.781Z,34.30
2019-02-14T16:51:52.747Z,39.37
2019-02-14T16:54:23.657Z,67.40
2019-02-14T16:56:54.598Z,72.30
2019-02-14T16:59:28.234Z,42.47
2019-02-14T17:01:59.165Z,39.70
2019-02-14T17:04:30.079Z,37.33
2019-02-14T17:07:01.034Z,44.77
2019-02-14T17:09:35.092Z,44.47
2019-02-14T17:12:06.034Z,35.87
2019-02-14T17:14:39.817Z,44.77
2019-02-14T17:17:13.800Z,48.00
2019-02-14T17:19:44.704Z,52.13
2019-02-14T17:22:15.755Z,50.93
2019-02-14T17:24:46.654Z,37.33
2019-02-14T17:27:17.585Z,46.13
2019-02-14T17:29:48.566Z,41.20
2019-02-14T17:32:22.537Z,41.37
2019-02-14T17:34:53.439Z,40.80
2019-02-14T17:37:24.500Z,48.87
2019-02-14T17:39:56.169Z,46.70
2019-02-14T17:42:31.250Z,42.90
2019-02-14T17:45:02.155Z,38.83
2019-02-14T17:47:33.087Z,37.83
2019-02-14T17:50:04.409Z,40.07
2019-02-14T17:52:35.376Z,41.07
2019-02-14T17:55:08.873Z,38.40
2019-02-14T17:57:39.885Z,38.53
2019-02-14T18:00:12.769Z,40.17
2019-02-14T18:02:43.715Z,34.03
2019-02-14T18:05:14.624Z,35.97
2019-02-14T18:07:45.614Z,37.30
2019-02-14T18:10:19.450Z,36.23
2019-02-14T18:12:50.395Z,38.10
2019-02-14T18:15:27.331Z,42.80
2019-02-14T18:17:58.258Z,55.93
2019-02-14T18:20:29.160Z,47.77
2019-02-14T18:23:00.114Z,44.50
2019-02-14T18:25:31.030Z,47.07
2019-02-14T18:28:02.563Z,46.33
2019-02-14T18:30:53.289Z,51.10
2019-02-14T18:33:24.223Z,51.60
2019-02-14T18:35:55.231Z,54.80
2019-02-14T18:38:26.180Z,48.07
2019-02-14T18:41:03.837Z,47.43
2019-02-14T18:43:30.498Z,58.67
2019-02-14T18:46:01.478Z,55.30
2019-02-14T18:48:32.412Z,57.33
2019-02-14T18:51:03.319Z,66.70
2019-02-14T18:53:34.276Z,57.20
2019-02-14T18:56:05.192Z,46.83
2019-02-14T18:58:38.829Z,48.50
2019-02-14T19:01:09.737Z,46.73
2019-02-14T19:03:43.345Z,48.00
2019-02-14T19:06:14.246Z,42.93
2019-02-14T19:08:45.221Z,37.77
2019-02-14T19:11:16.130Z,35.40
2019-02-14T19:13:47.071Z,36.33
2019-02-14T19:16:18.075Z,33.27
2019-02-14T19:18:49.085Z,32.73
2019-02-14T19:21:19.991Z,28.93
2019-02-14T19:23:50.959Z,33.63
2019-02-14T19:26:21.872Z,33.10
2019-02-14T19:28:52.802Z,29.57
2019-02-14T19:31:23.776Z,39.73
2019-02-14T19:33:54.704Z,37.00
2019-02-14T19:36:25.648Z,38.07
2019-02-14T19:38:56.665Z,38.87
2019-02-14T19:41:27.575Z,45.20
2019-02-14T19:43:58.512Z,38.73
2019-02-14T19:46:29.402Z,44.53
2019-02-14T19:49:00.402Z,41.17
2019-02-14T19:51:31.314Z,42.97
2019-02-14T19:54:02.264Z,42.37
2019-02-14T19:56:33.169Z,39.30
2019-02-14T19:59:04.102Z,41.87
2019-02-14T20:01:35.018Z,37.37
2019-02-14T20:04:06.024Z,36.47
2019-02-14T20:06:39.681Z,36.83
2019-02-14T20:09:10.731Z,37.07
2019-02-14T20:11:41.653Z,38.17
2019-02-14T20:14:12.587Z,37.93
2019-02-14T20:16:43.487Z,33.77
2019-02-14T20:19:15.972Z,37.97
2019-02-14T20:21:46.869Z,32.67
2019-02-14T20:24:17.820Z,34.17
2019-02-14T20:26:48.726Z,41.70
2019-02-14T20:29:19.664Z,35.83
2019-02-14T20:31:50.668Z,33.97
2019-02-14T20:34:21.590Z,32.07
2019-02-14T20:36:52.494Z,33.73
2019-02-14T20:39:23.580Z,32.00
2019-02-14T20:41:55.284Z,29.47
2019-02-14T20:44:26.229Z,31.17
2019-02-14T20:46:57.145Z,33.30
2019-02-14T20:49:28.180Z,35.00
2019-02-14T20:51:59.084Z,41.67
2019-02-14T20:54:33.000Z,36.03
2019-02-14T20:57:03.907Z,37.50
2019-02-14T20:59:37.734Z,34.57
2019-02-14T21:02:08.740Z,39.17
2019-02-14T21:04:42.369Z,48.87
2019-02-14T21:07:13.269Z,41.10
2019-02-14T21:09:44.581Z,33.23
2019-02-14T21:12:15.561Z,33.47
2019-02-14T21:14:46.490Z,32.83
2019-02-14T21:17:17.400Z,37.00
2019-02-14T21:19:48.334Z,37.30
2019-02-14T21:22:22.165Z,36.07
2019-02-14T21:24:53.126Z,36.67
2019-02-14T21:27:24.053Z,36.93
2019-02-14T21:29:54.982Z,37.23
2019-02-14T21:32:28.926Z,36.37
2019-02-14T21:34:59.851Z,37.57
2019-02-14T21:37:30.757Z,32.23
2019-02-14T21:40:01.940Z,35.43
2019-02-14T21:42:32.911Z,40.23
2019-02-14T21:45:04.471Z,36.77
2019-02-14T21:47:35.408Z,39.70
2019-02-14T21:50:12.059Z,38.87
2019-02-14T21:52:43.107Z,38.17
2019-02-14T21:55:14.915Z,38.23
2019-02-14T21:57:48.830Z,39.37
2019-02-14T22:00:25.485Z,36.77
2019-02-14T22:02:56.402Z,40.20
2019-02-14T22:05:27.335Z,40.60
2019-02-14T22:07:58.603Z,39.03
2019-02-14T22:10:29.559Z,38.67
2019-02-14T22:13:02.103Z,40.57
2019-02-14T22:15:33.127Z,37.57
2019-02-14T22:18:04.074Z,39.50
2019-02-14T22:20:35.102Z,36.30
2019-02-14T22:23:06.006Z,33.40
2019-02-14T22:25:36.955Z,34.87
2019-02-14T22:28:07.869Z,32.40
2019-02-14T22:30:41.203Z,31.37
2019-02-14T22:33:12.112Z,33.17
2019-02-14T22:35:43.050Z,31.63
2019-02-14T22:38:13.955Z,31.27
2019-02-14T22:40:44.904Z,36.13
2019-02-14T22:43:15.808Z,35.60
2019-02-14T22:45:46.756Z,34.17
2019-02-14T22:48:17.652Z,30.80
2019-02-14T22:50:50.044Z,33.33
2019-02-14T22:53:22.038Z,31.80
2019-02-14T22:55:53.101Z,30.93
2019-02-14T22:58:24.072Z,32.53
2019-02-14T23:00:57.974Z,31.30
2019-02-14T23:03:28.880Z,31.60
2019-02-14T23:05:59.815Z,32.50
2019-02-14T23:08:30.736Z,32.93
2019-02-14T23:11:01.690Z,32.60
2019-02-14T23:13:32.694Z,29.80
2019-02-14T23:16:03.634Z,33.00
2019-02-14T23:18:34.550Z,30.93
2019-02-14T23:21:05.479Z,33.80
2019-02-14T23:23:36.388Z,29.13
2019-02-14T23:26:07.354Z,34.87
2019-02-14T23:28:38.305Z,30.97
2019-02-14T23:31:09.268Z,27.17
2019-02-14T23:33:40.253Z,30.97
2019-02-14T23:36:11.255Z,33.40
2019-02-14T23:38:42.163Z,26.67
2019-02-14T23:41:13.124Z,30.60
2019-02-14T23:43:44.065Z,28.00
2019-02-14T23:46:15.004Z,30.23
2019-02-14T23:48:45.911Z,28.07
2019-02-14T23:51:16.924Z,28.57
2019-02-14T23:53:47.838Z,28.67
2019-02-14T23:56:18.797Z,28.77
2019-02-14T23:58:49.698Z,28.53
